createdAt,value
2023-02-24T00:18:11.109Z,7.12
2023-02-24T00:21:11.517Z,7.16
2023-02-24T00:26:59.553Z,7.17
2023-02-24T00:29:29.289Z,7.23
2023-02-24T00:36:10.759Z,7.11
2023-02-24T00:39:46.822Z,7.16
2023-02-24T00:45:24.640Z,7.20
2023-02-24T00:51:10.836Z,7.09
2023-02-24T00:54:49.231Z,7.14
2023-02-24T01:06:53.830Z,7.22
2023-02-24T01:21:31.965Z,6.98
2023-02-24T01:31:17.133Z,7.00
2023-02-24T01:33:55.914Z,7.04
2023-02-24T01:39:21.688Z,7.05
2023-02-24T01:41:54.364Z,7.03
2023-02-24T01:44:54.704Z,7.04
2023-02-24T01:47:48.594Z,7.00
2023-02-24T01:53:25.852Z,6.90
2023-02-24T01:56:33.797Z,6.91
2023-02-24T01:59:19.147Z,6.83
2023-02-24T02:02:31.142Z,6.84
2023-02-24T02:05:30.835Z,6.74
2023-02-24T02:08:23.632Z,6.69
2023-02-24T02:11:13.033Z,6.65
2023-02-24T02:14:03.002Z,6.55
2023-02-24T02:17:10.845Z,6.55
2023-02-24T02:24:10.452Z,6.33
2023-02-24T02:27:26.102Z,6.34
2023-02-24T02:30:24.186Z,6.29
2023-02-24T02:33:44.284Z,6.25
2023-02-24T02:40:44.665Z,6.19
2023-02-24T02:47:14.647Z,6.08
2023-02-24T02:53:43.838Z,6.08
2023-02-24T02:59:35.254Z,6.02
2023-02-24T03:02:32.479Z,6.13
2023-02-24T03:05:14.653Z,6.21
2023-02-24T03:08:14.066Z,6.16
2023-02-24T03:11:00.685Z,6.21
2023-02-24T03:13:32.946Z,6.23
2023-02-24T03:19:53.946Z,6.32
2023-02-24T03:23:27.878Z,6.37
2023-02-24T03:26:57.513Z,6.31
2023-02-24T03:30:32.509Z,6.35
2023-02-24T03:40:12.225Z,6.25
2023-02-24T03:43:18.753Z,6.25
2023-02-24T03:45:59.126Z,6.26
2023-02-24T03:49:34.469Z,6.22
2023-02-24T03:52:53.234Z,6.23
2023-02-24T03:55:46.347Z,6.19
2023-02-24T04:18:25.062Z,5.93
2023-02-24T04:25:25.165Z,5.72
2023-02-24T04:28:31.195Z,5.69
2023-02-24T04:34:37.889Z,5.53
2023-02-24T04:38:24.508Z,5.48
2023-02-24T04:41:37.736Z,5.39
2023-02-24T04:44:10.772Z,5.39
2023-02-24T04:46:40.505Z,5.37
2023-02-24T04:49:07.216Z,5.28
2023-02-24T04:51:57.203Z,5.17
2023-02-24T04:55:20.488Z,5.19
2023-02-24T05:01:22.074Z,5.13
2023-02-24T05:03:54.816Z,5.14
2023-02-24T05:06:38.626Z,5.17
2023-02-24T05:09:19.522Z,5.13
2023-02-24T05:11:50.440Z,5.16
2023-02-24T05:14:28.837Z,5.19
2023-02-24T05:17:00.582Z,5.14
2023-02-24T05:19:46.448Z,5.17
2023-02-24T05:22:18.890Z,5.20
2023-02-24T05:24:52.932Z,5.17
2023-02-24T05:27:19.947Z,5.11
2023-02-24T05:29:46.811Z,5.11
2023-02-24T05:32:19.479Z,5.14
2023-02-24T05:34:49.117Z,5.15
2023-02-24T05:37:17.004Z,5.21
2023-02-24T05:39:43.737Z,5.23
2023-02-24T05:42:11.448Z,5.28
2023-02-24T05:44:41.970Z,5.29
2023-02-24T05:47:11.521Z,5.38
2023-02-24T05:49:39.095Z,5.44
2023-02-24T05:52:11.344Z,5.48
2023-02-24T05:55:48.610Z,5.57
2023-02-24T05:57:36.006Z,5.51
2023-02-24T06:00:15.526Z,5.62
2023-02-24T06:02:49.997Z,5.64
2023-02-24T06:05:59.779Z,5.60
2023-02-24T06:08:28.543Z,5.62
2023-02-24T06:11:01.921Z,5.61
2023-02-24T06:13:57.701Z,5.67
2023-02-24T06:16:29.111Z,5.80
2023-02-24T06:19:04.121Z,5.83
2023-02-24T06:21:44.191Z,5.87
2023-02-24T06:24:20.936Z,5.95
2023-02-24T06:26:59.375Z,5.95
2023-02-24T06:29:29.710Z,5.98
2023-02-24T06:31:59.976Z,6.17
2023-02-24T06:34:28.195Z,6.31
2023-02-24T06:36:55.135Z,6.55
2023-02-24T06:39:22.990Z,6.89
2023-02-24T06:41:55.536Z,7.06
2023-02-24T06:44:25.808Z,7.09
2023-02-24T06:46:59.809Z,7.24
2023-02-24T06:49:37.058Z,7.32
2023-02-24T06:52:09.047Z,7.27
2023-02-24T06:54:42.269Z,7.32
2023-02-24T06:57:15.563Z,7.30
2023-02-24T06:59:44.827Z,7.23
2023-02-24T07:05:40.134Z,7.13
2023-02-24T07:08:40.912Z,7.18
2023-02-24T07:11:48.176Z,7.23
2023-02-24T07:17:19.607Z,7.41
2023-02-24T07:19:46.680Z,7.41
2023-02-24T07:26:31.390Z,7.36
2023-02-24T07:33:41.504Z,7.86
2023-02-24T07:35:30.347Z,8.04
2023-02-24T07:38:05.223Z,8.16
2023-02-24T07:47:23.141Z,8.48
2023-02-24T07:57:27.000Z,8.90
2023-02-24T08:00:08.352Z,9.04
2023-02-24T08:06:11.633Z,8.92
2023-02-24T08:31:15.520Z,9.24
2023-02-24T08:34:07.496Z,9.27
2023-02-24T08:37:48.948Z,9.64
2023-02-24T08:41:22.302Z,9.92
2023-02-24T08:44:43.979Z,9.99
2023-02-24T08:51:19.794Z,10.05
2023-02-24T08:54:47.809Z,10.13
2023-02-24T08:57:01.249Z,10.21
2023-02-24T09:00:09.112Z,10.33
2023-02-24T09:02:43.391Z,10.66
2023-02-24T09:09:48.921Z,11.07
2023-02-24T09:19:46.299Z,11.32
2023-02-24T09:22:32.310Z,11.56
2023-02-24T09:25:46.501Z,11.86
2023-02-24T09:28:33.163Z,12.15
2023-02-24T10:27:00.837Z,11.43
2023-02-24T10:29:52.934Z,11.59
2023-02-24T10:33:16.296Z,11.79
2023-02-24T10:36:48.015Z,12.14
2023-02-24T10:40:57.097Z,12.26
2023-02-24T10:43:50.843Z,12.60
2023-02-24T10:50:46.966Z,12.83
2023-02-24T10:54:05.942Z,13.12
2023-02-24T10:57:01.339Z,13.35
2023-02-24T11:00:27.061Z,13.54
2023-02-24T11:29:44.692Z,15.75
2023-02-24T11:32:53.559Z,15.90
2023-02-24T11:36:04.179Z,15.95
2023-02-24T11:38:39.304Z,16.04
2023-02-24T11:41:24.039Z,15.94
2023-02-24T11:44:58.866Z,15.91
2023-02-24T11:56:28.164Z,15.62
2023-02-24T11:59:17.273Z,15.48
2023-02-24T12:02:00.147Z,15.36
2023-02-24T12:04:43.713Z,15.50
2023-02-24T12:07:17.077Z,15.57
2023-02-24T12:10:06.973Z,15.64
2023-02-24T12:12:59.782Z,15.76
2023-02-24T12:15:59.588Z,15.62
2023-02-24T12:22:48.380Z,15.80
2023-02-24T12:26:02.326Z,15.89
2023-02-24T12:29:47.166Z,16.10
2023-02-24T12:32:42.003Z,16.09
2023-02-24T12:36:31.097Z,16.04
2023-02-24T12:42:51.344Z,16.12
2023-02-24T12:45:43.769Z,16.13
2023-02-24T12:52:14.207Z,16.17
2023-02-24T12:55:04.803Z,16.22
2023-02-24T13:05:19.770Z,16.33
2023-02-24T13:29:30.969Z,14.59
2023-02-24T13:42:39.249Z,14.42
2023-02-24T13:52:57.811Z,14.70
2023-02-24T14:03:28.128Z,14.47
2023-02-24T14:05:59.817Z,14.44
2023-02-24T14:09:17.247Z,14.46
2023-02-24T14:12:37.463Z,14.48
2023-02-24T14:15:39.182Z,14.51
2023-02-24T14:22:46.903Z,14.73
2023-02-24T14:25:21.170Z,14.69
2023-02-24T14:28:17.877Z,14.71
2023-02-24T14:30:48.393Z,14.59
2023-02-24T14:33:39.913Z,14.45
2023-02-24T14:42:59.092Z,14.27
2023-02-24T14:46:02.102Z,14.67
2023-02-24T14:49:21.508Z,14.89
2023-02-24T14:55:57.084Z,14.77
2023-02-24T14:58:45.582Z,14.51
2023-02-24T15:01:42.348Z,14.21
2023-02-24T15:10:58.677Z,13.96
2023-02-24T15:15:10.070Z,13.54
2023-02-24T15:18:07.559Z,13.42
2023-02-24T15:21:06.241Z,13.13
2023-02-24T15:32:36.167Z,12.81
2023-02-24T16:21:04.397Z,10.38
2023-02-24T16:40:43.101Z,10.00
2023-02-24T16:48:18.026Z,9.73
2023-02-24T16:50:49.837Z,9.62
2023-02-24T16:54:24.269Z,9.70
2023-02-24T16:57:42.497Z,9.74
2023-02-24T17:01:21.288Z,9.68
2023-02-24T17:07:22.374Z,9.58
2023-02-24T17:11:00.839Z,9.50
2023-02-24T17:19:34.496Z,9.12
2023-02-24T17:39:29.483Z,8.25
2023-02-24T17:41:56.521Z,8.12
2023-02-24T17:45:56.836Z,7.92
2023-02-24T17:51:52.182Z,7.79
2023-02-24T17:54:19.505Z,7.66
2023-02-24T18:00:49.680Z,7.43
2023-02-24T18:07:08.854Z,7.09
2023-02-24T18:15:34.717Z,6.96
2023-02-24T18:18:30.544Z,6.86
2023-02-24T18:24:30.272Z,6.64
2023-02-24T18:27:10.287Z,6.52
2023-02-24T18:33:09.930Z,6.38
2023-02-24T18:39:27.190Z,6.48
2023-02-24T18:43:24.456Z,6.34
2023-02-24T18:46:15.408Z,6.14
2023-02-24T18:49:49.440Z,6.09
2023-02-24T18:52:31.790Z,5.90
2023-02-24T19:12:07.882Z,5.69
2023-02-24T19:15:14.484Z,5.69
2023-02-24T19:19:49.929Z,5.56
2023-02-24T19:22:12.172Z,5.42
2023-02-24T19:26:18.572Z,5.44
2023-02-24T19:32:21.859Z,5.29
2023-02-24T19:37:56.943Z,5.32
2023-02-24T19:47:52.959Z,4.93
2023-02-24T19:50:19.837Z,5.08
2023-02-24T19:53:49.449Z,4.99
2023-02-24T20:00:00.061Z,4.97
2023-02-24T20:02:45.820Z,4.83
2023-02-24T20:05:19.574Z,4.79
2023-02-24T20:07:46.835Z,4.69
2023-02-24T20:46:37.444Z,4.35
2023-02-24T20:49:11.016Z,4.44
2023-02-24T21:03:24.595Z,4.16
2023-02-24T21:18:46.466Z,4.08
2023-02-24T21:25:00.376Z,3.79
2023-02-24T21:28:25.107Z,3.92
2023-02-24T21:32:12.198Z,3.84
2023-02-24T21:34:45.503Z,3.78
2023-02-24T21:44:12.675Z,3.75
2023-02-24T23:08:05.760Z,3.25
2023-02-24T23:35:41.076Z,3.58
2023-02-24T23:39:07.610Z,3.60
